Time;durP1;ratioP1;P1;durP2;ratioP2;P2;SDS_P1;SDS_P2;PMS_P1;PMS_P2;Temp;Humidity;BMP_temperature;BMP_pressure;BME280_temperature;BME280_humidity;BME280_pressure;Samples;Min_cycle;Max_cycle;Signal;HPM_P1;HPM_P2
2022/12/06 00:02:21;;;;;;;0.62;0.62;;;;;;;;;;1793427;78;26239;-39
2022/12/06 00:04:48;;;;;;;0.50;0.50;;;;;;;;;;1785895;80;26199;-44
2022/12/06 00:07:15;;;;;;;0.60;0.60;;;;;;;;;;1785017;79;26273;-39
2022/12/06 00:09:43;;;;;;;0.65;0.65;;;;;;;;;;1785932;78;26645;-38
2022/12/06 00:12:10;;;;;;;0.80;0.80;;;;;;;;;;1797609;79;26183;-43
2022/12/06 00:14:37;;;;;;;0.60;0.60;;;;;;;;;;1784785;80;26252;-38
2022/12/06 00:17:05;;;;;;;0.45;0.45;;;;;;;;;;1785702;78;26231;-38
2022/12/06 00:19:32;;;;;;;0.50;0.50;;;;;;;;;;1791430;79;26671;-39
2022/12/06 00:21:59;;;;;;;0.60;0.60;;;;;;;;;;1785874;78;26191;-38
2022/12/06 00:24:27;;;;;;;0.55;0.55;;;;;;;;;;1785751;78;26292;-39
2022/12/06 00:26:54;;;;;;;0.95;0.80;;;;;;;;;;1784816;79;26637;-39
2022/12/06 00:29:22;;;;;;;0.60;0.60;;;;;;;;;;1782602;79;26219;-41
2022/12/06 00:31:50;;;;;;;0.70;0.70;;;;;;;;;;1783439;79;26799;-39
2022/12/06 00:34:17;;;;;;;0.40;0.40;;;;;;;;;;1785356;79;26243;-37
2022/12/06 00:36:44;;;;;;;0.47;0.47;;;;;;;;;;1787352;80;26706;-42
2022/12/06 00:39:13;;;;;;;0.57;0.57;;;;;;;;;;1785735;78;26363;-42
2022/12/06 00:41:41;;;;;;;0.57;0.57;;;;;;;;;;1785590;80;26183;-38
2022/12/06 00:44:09;;;;;;;0.57;0.57;;;;;;;;;;1785578;79;26266;-38
2022/12/06 00:46:36;;;;;;;0.50;0.50;;;;;;;;;;1783721;79;26164;-40
2022/12/06 00:49:05;;;;;;;0.50;0.50;;;;;;;;;;1778061;80;27076;-41
2022/12/06 00:51:32;;;;;;;0.42;0.42;;;;;;;;;;1785909;79;26247;-41
2022/12/06 00:54:01;;;;;;;0.60;0.60;;;;;;;;;;1785575;78;26235;-39
2022/12/06 00:56:28;;;;;;;0.50;0.50;;;;;;;;;;1786032;79;26641;-40
2022/12/06 00:58:55;;;;;;;0.60;0.60;;;;;;;;;;1785688;79;26222;-39
2022/12/06 01:01:24;;;;;;;0.50;0.50;;;;;;;;;;1778594;79;26254;-40
2022/12/06 01:03:52;;;;;;;0.60;0.60;;;;;;;;;;1784503;79;26231;-40
2022/12/06 01:06:21;;;;;;;0.60;0.60;;;;;;;;;;1787691;79;26191;-40
2022/12/06 01:08:49;;;;;;;0.70;0.70;;;;;;;;;;1785222;78;26316;-45
2022/12/06 01:11:16;;;;;;;0.65;0.65;;;;;;;;;;1785815;79;26297;-41
2022/12/06 01:13:43;;;;;;;0.57;0.57;;;;;;;;;;1776751;79;26650;-41
2022/12/06 01:16:15;;;;;;;0.50;0.50;;;;;;;;;;1782921;79;26292;-39
2022/12/06 01:18:43;;;;;;;0.40;0.40;;;;;;;;;;1785574;79;26692;-41
2022/12/06 01:21:12;;;;;;;0.60;0.60;;;;;;;;;;1785264;79;26184;-39
2022/12/06 01:23:39;;;;;;;0.40;0.40;;;;;;;;;;1785191;79;26261;-38
2022/12/06 01:26:07;;;;;;;0.50;0.50;;;;;;;;;;1784994;78;26312;-41
2022/12/06 01:28:34;;;;;;;0.50;0.50;;;;;;;;;;1756879;80;26263;-37
2022/12/06 01:31:03;;;;;;;0.40;0.40;;;;;;;;;;1770392;78;26191;-41
2022/12/06 01:33:30;;;;;;;0.60;0.60;;;;;;;;;;1785843;79;26265;-39
2022/12/06 01:35:57;;;;;;;0.50;0.50;;;;;;;;;;1785817;80;26258;-38
2022/12/06 01:38:25;;;;;;;0.65;0.45;;;;;;;;;;1785115;79;27086;-39
2022/12/06 01:40:52;;;;;;;0.47;0.47;;;;;;;;;;1784758;80;26726;-40
2022/12/06 01:43:29;;;;;;;0.50;0.50;;;;;;;;;;1786235;79;26585;-38
2022/12/06 01:45:58;;;;;;;0.40;0.40;;;;;;;;;;1760068;80;26318;-38
2022/12/06 01:48:26;;;;;;;0.53;0.53;;;;;;;;;;1786169;80;26862;-41
2022/12/06 01:50:57;;;;;;;0.50;0.50;;;;;;;;;;1784171;79;26254;-41
2022/12/06 01:53:25;;;;;;;0.53;0.53;;;;;;;;;;1784832;79;26682;-38
2022/12/06 01:55:53;;;;;;;0.42;0.42;;;;;;;;;;1786090;79;26199;-40
2022/12/06 01:58:22;;;;;;;0.40;0.40;;;;;;;;;;1785015;80;26703;-37
2022/12/06 02:00:50;;;;;;;0.50;0.50;;;;;;;;;;1780994;78;26316;-39
2022/12/06 02:03:21;;;;;;;0.50;0.50;;;;;;;;;;1791044;79;26237;-38
2022/12/06 02:05:48;;;;;;;0.40;0.40;;;;;;;;;;1810780;78;26181;-40
2022/12/06 02:08:16;;;;;;;0.60;0.60;;;;;;;;;;1807691;78;26206;-38
2022/12/06 02:10:43;;;;;;;0.53;0.53;;;;;;;;;;1805911;78;27055;-42
2022/12/06 02:13:10;;;;;;;0.47;0.47;;;;;;;;;;1805370;78;26294;-39
2022/12/06 02:15:49;;;;;;;0.50;0.50;;;;;;;;;;1805100;78;26393;-39
2022/12/06 02:18:20;;;;;;;0.47;0.47;;;;;;;;;;1800988;79;26823;-38
2022/12/06 02:20:49;;;;;;;0.40;0.40;;;;;;;;;;1801905;79;26659;-41
2022/12/06 02:23:18;;;;;;;0.55;0.55;;;;;;;;;;1788264;78;27420;-38
2022/12/06 02:26:03;;;;;;;0.50;0.50;;;;;;;;;;1801596;79;26182;-40
2022/12/06 02:28:44;;;;;;;0.50;0.50;;;;;;;;;;1805866;78;26363;-41
2022/12/06 02:31:13;;;;;;;1.65;0.50;;;;;;;;;;1803263;78;26261;-40
2022/12/06 02:33:41;;;;;;;0.60;0.60;;;;;;;;;;1805630;78;26194;-44
2022/12/06 02:36:16;;;;;;;0.60;0.50;;;;;;;;;;1785204;79;26243;-42
2022/12/06 02:38:48;;;;;;;0.50;0.50;;;;;;;;;;1775734;79;26270;-40
2022/12/06 02:41:22;;;;;;;0.45;0.45;;;;;;;;;;1840827;77;26205;-37
2022/12/06 02:43:54;;;;;;;0.50;0.50;;;;;;;;;;1839759;77;26643;-43
2022/12/06 02:46:22;;;;;;;0.50;0.50;;;;;;;;;;1827594;77;26309;-45
2022/12/06 02:48:51;;;;;;;0.40;0.40;;;;;;;;;;1825069;77;26300;-43
2022/12/06 02:51:19;;;;;;;0.50;0.50;;;;;;;;;;1848056;77;26209;-39
2022/12/06 02:53:48;;;;;;;0.50;0.50;;;;;;;;;;1831317;77;26631;-40
2022/12/06 02:56:16;;;;;;;0.50;0.50;;;;;;;;;;1836616;77;26297;-38
2022/12/06 02:58:44;;;;;;;0.55;0.55;;;;;;;;;;1830026;77;26249;-41
2022/12/06 03:01:15;;;;;;;0.50;0.50;;;;;;;;;;1817897;77;26277;-38
2022/12/06 03:03:44;;;;;;;0.53;0.53;;;;;;;;;;1825689;77;26249;-41
2022/12/06 03:06:29;;;;;;;0.57;0.57;;;;;;;;;;1811371;77;26335;-37
2022/12/06 03:09:01;;;;;;;0.60;0.60;;;;;;;;;;1832977;77;26649;-41
2022/12/06 03:11:29;;;;;;;0.50;0.50;;;;;;;;;;1826142;77;26244;-38
2022/12/06 03:14:02;;;;;;;0.50;0.50;;;;;;;;;;1831584;77;26220;-37
2022/12/06 03:16:31;;;;;;;0.60;0.60;;;;;;;;;;1799400;79;26320;-37
2022/12/06 03:19:00;;;;;;;1.20;0.50;;;;;;;;;;1813364;76;26192;-37
2022/12/06 03:21:29;;;;;;;0.40;0.40;;;;;;;;;;1770375;80;26328;-39
2022/12/06 03:23:57;;;;;;;0.40;0.40;;;;;;;;;;1756742;80;26255;-38
2022/12/06 03:26:26;;;;;;;0.47;0.47;;;;;;;;;;1834030;77;26642;-38
2022/12/06 03:28:54;;;;;;;0.45;0.45;;;;;;;;;;1832667;76;26712;-39
2022/12/06 03:31:23;;;;;;;0.50;0.50;;;;;;;;;;1799492;78;26227;-37
2022/12/06 03:33:51;;;;;;;0.60;0.60;;;;;;;;;;1783392;79;26225;-40
2022/12/06 03:36:19;;;;;;;0.42;0.42;;;;;;;;;;1833179;77;26282;-37
2022/12/06 03:38:48;;;;;;;0.60;0.60;;;;;;;;;;1833435;77;26792;-40
2022/12/06 03:41:16;;;;;;;0.50;0.50;;;;;;;;;;1842814;77;27140;-41
2022/12/06 03:43:43;;;;;;;0.50;0.50;;;;;;;;;;1833976;76;26220;-44
2022/12/06 03:46:12;;;;;;;0.80;0.80;;;;;;;;;;1830855;77;26317;-41
2022/12/06 03:48:57;;;;;;;0.50;0.50;;;;;;;;;;1798541;78;26297;-41
2022/12/06 03:51:32;;;;;;;0.50;0.50;;;;;;;;;;1757186;81;26837;-43
2022/12/06 03:54:01;;;;;;;0.60;0.60;;;;;;;;;;1846345;77;27157;-39
2022/12/06 03:56:28;;;;;;;0.60;0.60;;;;;;;;;;1835871;77;26235;-43
2022/12/06 03:58:55;;;;;;;0.60;0.60;;;;;;;;;;1832267;77;26217;-40
2022/12/06 04:01:23;;;;;;;0.60;0.60;;;;;;;;;;1834915;77;26310;-37
2022/12/06 04:03:50;;;;;;;0.40;0.40;;;;;;;;;;1828742;76;26712;-46
2022/12/06 04:06:17;;;;;;;0.50;0.50;;;;;;;;;;1836763;77;26213;-40
2022/12/06 04:08:45;;;;;;;0.57;0.57;;;;;;;;;;1836819;77;26297;-38
2022/12/06 04:11:12;;;;;;;0.53;0.53;;;;;;;;;;1833023;77;26216;-39
2022/12/06 04:13:39;;;;;;;0.60;0.60;;;;;;;;;;1831853;76;26201;-39
2022/12/06 04:18:09;;;;;;;0.50;0.50;;;;;;;;;;1832624;76;27036;-38
2022/12/06 04:18:36;;;;;;;0.50;0.50;;;;;;;;;;1802968;78;26257;-42
2022/12/06 04:23:50;;;;;;;0.60;0.60;;;;;;;;;;1832821;77;26741;-42
2022/12/06 04:26:19;;;;;;;0.40;0.40;;;;;;;;;;1823406;77;26220;-41
2022/12/06 04:39:49;;;;;;;0.50;0.50;;;;;;;;;;1827534;77;26224;-38
2022/12/06 04:45:03;;;;;;;0.65;0.65;;;;;;;;;;1833575;76;26970;-41
2022/12/06 04:47:30;;;;;;;0.53;0.53;;;;;;;;;;1832095;77;26646;-41
2022/12/06 04:49:57;;;;;;;0.60;0.60;;;;;;;;;;1825399;77;26268;-40
2022/12/06 04:52:25;;;;;;;0.50;0.50;;;;;;;;;;1831538;77;26224;-39
2022/12/06 04:54:52;;;;;;;0.50;0.50;;;;;;;;;;1791262;78;26254;-41
2022/12/06 04:57:19;;;;;;;0.50;0.50;;;;;;;;;;1795494;78;26241;-40
2022/12/06 04:59:48;;;;;;;0.50;0.50;;;;;;;;;;1795306;78;26219;-39
2022/12/06 05:02:15;;;;;;;0.50;0.50;;;;;;;;;;1795345;78;26289;-40
2022/12/06 05:04:42;;;;;;;0.60;0.60;;;;;;;;;;1794314;78;26728;-42
2022/12/06 05:07:10;;;;;;;0.60;0.60;;;;;;;;;;1830168;76;26749;-37
2022/12/06 05:09:37;;;;;;;0.70;0.70;;;;;;;;;;1831990;77;26262;-40
2022/12/06 05:12:05;;;;;;;0.50;0.50;;;;;;;;;;1828456;77;26863;-40
2022/12/06 05:14:32;;;;;;;0.60;0.60;;;;;;;;;;1827299;76;26208;-41
2022/12/06 05:16:59;;;;;;;0.50;0.50;;;;;;;;;;1795025;78;26344;-45
2022/12/06 05:19:27;;;;;;;0.60;0.60;;;;;;;;;;1799779;78;26309;-42
2022/12/06 05:21:54;;;;;;;0.60;0.60;;;;;;;;;;1755163;80;26266;-44
2022/12/06 05:24:21;;;;;;;0.60;0.60;;;;;;;;;;1797840;78;26281;-41
2022/12/06 05:26:49;;;;;;;0.85;0.70;;;;;;;;;;1797373;78;26258;-42
2022/12/06 05:29:16;;;;;;;0.88;0.88;;;;;;;;;;1797058;78;26219;-39
2022/12/06 05:31:43;;;;;;;0.90;0.90;;;;;;;;;;1800058;78;26261;-48
2022/12/06 05:34:11;;;;;;;1.10;1.10;;;;;;;;;;1770106;80;26229;-47
2022/12/06 05:36:38;;;;;;;1.15;1.15;;;;;;;;;;1782763;79;26207;-40
2022/12/06 05:39:06;;;;;;;1.30;1.30;;;;;;;;;;1829780;77;27157;-42
2022/12/06 05:41:33;;;;;;;1.47;1.37;;;;;;;;;;1796555;78;26301;-41
2022/12/06 05:44:00;;;;;;;1.40;1.40;;;;;;;;;;1799176;79;26425;-43
2022/12/06 05:46:28;;;;;;;1.65;1.52;;;;;;;;;;1830443;77;26212;-38
2022/12/06 05:48:55;;;;;;;1.47;1.40;;;;;;;;;;1831632;77;26197;-40
2022/12/06 05:51:22;;;;;;;1.67;1.57;;;;;;;;;;1795089;79;26289;-40
2022/12/06 05:53:49;;;;;;;3.05;1.70;;;;;;;;;;1793834;78;26289;-41
2022/12/06 05:56:18;;;;;;;3.12;1.40;;;;;;;;;;1792912;78;26297;-44
2022/12/06 05:58:45;;;;;;;1.40;1.30;;;;;;;;;;1815905;77;26184;-48
2022/12/06 06:01:12;;;;;;;1.60;1.50;;;;;;;;;;1801887;77;26297;-41
2022/12/06 06:03:41;;;;;;;2.10;2.00;;;;;;;;;;1812244;77;26222;-44
2022/12/06 06:06:09;;;;;;;2.98;2.00;;;;;;;;;;1811470;77;26336;-42
2022/12/06 06:08:36;;;;;;;2.50;2.30;;;;;;;;;;1809894;79;26234;-41
2022/12/06 06:11:04;;;;;;;4.75;3.33;;;;;;;;;;1800475;78;26279;-41
2022/12/06 06:13:31;;;;;;;5.45;3.87;;;;;;;;;;1781948;79;26299;-39
2022/12/06 06:15:58;;;;;;;4.80;4.40;;;;;;;;;;1799947;78;26682;-39
2022/12/06 06:18:25;;;;;;;5.53;5.12;;;;;;;;;;1795992;78;27177;-41
2022/12/06 06:20:57;;;;;;;6.10;5.60;;;;;;;;;;1810489;78;26230;-43
2022/12/06 06:23:26;;;;;;;6.92;6.22;;;;;;;;;;1810702;78;26695;-40
2022/12/06 06:25:53;;;;;;;7.28;6.58;;;;;;;;;;1805833;78;26304;-42
2022/12/06 06:28:20;;;;;;;6.65;6.15;;;;;;;;;;1804851;79;26230;-43
2022/12/06 06:30:48;;;;;;;9.53;8.30;;;;;;;;;;1763982;80;26310;-39
2022/12/06 06:33:15;;;;;;;12.43;9.23;;;;;;;;;;1779068;80;26231;-38
2022/12/06 06:35:43;;;;;;;13.88;9.95;;;;;;;;;;1807178;78;26222;-39
2022/12/06 06:38:11;;;;;;;21.27;11.25;;;;;;;;;;1800112;78;26226;-38
2022/12/06 06:40:38;;;;;;;15.58;8.78;;;;;;;;;;1773636;80;27012;-39
2022/12/06 06:43:17;;;;;;;11.38;6.62;;;;;;;;;;1803174;78;26572;-41
2022/12/06 06:45:45;;;;;;;11.08;6.60;;;;;;;;;;1790417;78;28302;-46
2022/12/06 06:48:13;;;;;;;8.80;5.70;;;;;;;;;;1784268;79;26691;-45
2022/12/06 06:50:40;;;;;;;9.18;5.47;;;;;;;;;;1782809;78;26209;-46
2022/12/06 06:53:07;;;;;;;8.13;5.15;;;;;;;;;;1781286;79;26331;-44
2022/12/06 06:55:37;;;;;;;7.37;4.80;;;;;;;;;;1780439;79;26348;-45
2022/12/06 06:58:05;;;;;;;5.72;4.35;;;;;;;;;;1783170;78;26249;-52
2022/12/06 07:00:32;;;;;;;5.97;4.37;;;;;;;;;;1780381;80;26230;-44
2022/12/06 07:02:59;;;;;;;5.47;4.00;;;;;;;;;;1783664;80;26900;-41
2022/12/06 07:05:27;;;;;;;5.65;3.52;;;;;;;;;;1781293;79;26892;-46
2022/12/06 07:07:56;;;;;;;4.70;3.40;;;;;;;;;;1800145;78;26249;-41
2022/12/06 07:10:27;;;;;;;4.55;3.12;;;;;;;;;;1805646;78;26223;-39
2022/12/06 07:12:53;;;;;;;3.50;3.20;;;;;;;;;;1822980;77;26757;-45
2022/12/06 07:15:20;;;;;;;2.92;2.72;;;;;;;;;;1824006;77;26811;-42
2022/12/06 07:17:50;;;;;;;3.10;2.90;;;;;;;;;;1825654;77;26297;-40
2022/12/06 07:20:17;;;;;;;3.15;2.60;;;;;;;;;;1822922;77;26173;-42
2022/12/06 07:22:45;;;;;;;2.67;2.47;;;;;;;;;;1821660;77;26561;-42
2022/12/06 07:25:12;;;;;;;2.45;2.30;;;;;;;;;;1822908;77;26216;-48
2022/12/06 07:27:39;;;;;;;2.55;2.35;;;;;;;;;;1825665;77;27029;-41
2022/12/06 07:30:07;;;;;;;2.50;2.37;;;;;;;;;;1829217;77;26692;-40
2022/12/06 07:32:35;;;;;;;2.35;2.17;;;;;;;;;;1827722;77;26216;-41
2022/12/06 07:35:03;;;;;;;2.22;2.10;;;;;;;;;;1802749;78;26226;-41
2022/12/06 07:37:31;;;;;;;2.27;2.08;;;;;;;;;;1809667;78;26013;-45
2022/12/06 07:39:58;;;;;;;1.92;1.82;;;;;;;;;;1810308;78;26347;-46
2022/12/06 07:45:11;;;;;;;1.90;1.80;;;;;;;;;;1778714;79;27514;-41
2022/12/06 07:47:40;;;;;;;2.52;2.00;;;;;;;;;;1769592;80;28522;-37
2022/12/06 07:50:09;;;;;;;1.70;1.60;;;;;;;;;;1816094;78;26227;-40
2022/12/06 07:52:36;;;;;;;4.87;1.70;;;;;;;;;;1789553;79;26287;-49
2022/12/06 07:55:05;;;;;;;1.62;1.52;;;;;;;;;;1813421;78;26226;-47
2022/12/06 07:57:33;;;;;;;1.47;1.47;;;;;;;;;;1809096;77;26854;-40
2022/12/06 08:00:00;;;;;;;1.47;1.37;;;;;;;;;;1811161;77;26245;-37
2022/12/06 08:02:28;;;;;;;1.52;1.42;;;;;;;;;;1787329;79;26239;-38
2022/12/06 08:04:56;;;;;;;1.72;1.30;;;;;;;;;;1779913;80;26272;-38
2022/12/06 08:07:24;;;;;;;2.05;1.30;;;;;;;;;;1774607;80;26342;-43
2022/12/06 08:09:52;;;;;;;1.30;1.30;;;;;;;;;;1828588;77;26233;-43
2022/12/06 08:12:20;;;;;;;1.40;1.35;;;;;;;;;;1832292;77;26285;-42
2022/12/06 08:14:47;;;;;;;1.20;1.20;;;;;;;;;;1829288;78;25725;-45
2022/12/06 08:17:15;;;;;;;1.60;1.50;;;;;;;;;;1822073;76;28751;-39
2022/12/06 08:19:42;;;;;;;1.37;1.20;;;;;;;;;;1830987;76;26277;-48
2022/12/06 08:22:10;;;;;;;1.32;1.30;;;;;;;;;;1828835;77;26289;-41
2022/12/06 08:24:37;;;;;;;1.65;1.20;;;;;;;;;;1830834;77;26283;-41
2022/12/06 08:27:05;;;;;;;0.90;0.90;;;;;;;;;;1831147;77;26200;-43
2022/12/06 08:29:33;;;;;;;1.00;1.00;;;;;;;;;;1830173;78;26850;-43
2022/12/06 08:32:00;;;;;;;1.10;1.10;;;;;;;;;;1830319;76;26327;-41
2022/12/06 08:34:27;;;;;;;1.17;1.10;;;;;;;;;;1795958;78;26234;-44
2022/12/06 08:36:55;;;;;;;2.08;1.00;;;;;;;;;;1802739;78;26670;-43
2022/12/06 08:39:24;;;;;;;1.00;1.00;;;;;;;;;;1802828;78;26304;-44
2022/12/06 08:41:57;;;;;;;1.50;1.02;;;;;;;;;;1828752;76;26265;-42
2022/12/06 08:44:25;;;;;;;1.87;1.00;;;;;;;;;;1830957;76;26263;-45
2022/12/06 08:46:53;;;;;;;0.93;0.93;;;;;;;;;;1829727;77;26220;-49
2022/12/06 08:49:21;;;;;;;0.88;0.88;;;;;;;;;;1828843;77;26192;-41
2022/12/06 08:51:49;;;;;;;1.00;1.00;;;;;;;;;;1829149;76;26753;-45
2022/12/06 08:54:17;;;;;;;0.82;0.82;;;;;;;;;;1829256;78;26272;-53
2022/12/06 08:56:45;;;;;;;0.90;0.90;;;;;;;;;;1831952;77;26282;-48
2022/12/06 08:59:12;;;;;;;0.80;0.80;;;;;;;;;;1827188;76;26207;-43
2022/12/06 09:01:39;;;;;;;1.20;0.90;;;;;;;;;;1827388;77;27291;-45
2022/12/06 09:04:08;;;;;;;0.88;0.88;;;;;;;;;;1829572;76;26317;-46
2022/12/06 09:06:37;;;;;;;0.70;0.70;;;;;;;;;;1828695;76;26724;-40
2022/12/06 09:09:04;;;;;;;0.90;0.90;;;;;;;;;;1826229;77;26219;-48
2022/12/06 09:11:31;;;;;;;0.80;0.80;;;;;;;;;;1828695;77;26237;-43
2022/12/06 09:13:58;;;;;;;0.80;0.80;;;;;;;;;;1826125;77;26274;-43
2022/12/06 09:16:25;;;;;;;0.80;0.80;;;;;;;;;;1825723;77;26245;-44
2022/12/06 09:18:53;;;;;;;0.82;0.82;;;;;;;;;;1821625;77;28195;-49
2022/12/06 09:21:21;;;;;;;0.82;0.82;;;;;;;;;;1810163;77;28344;-52
2022/12/06 09:23:49;;;;;;;0.68;0.68;;;;;;;;;;1827970;77;26276;-41
2022/12/06 09:26:16;;;;;;;0.70;0.70;;;;;;;;;;1828309;77;26234;-43
2022/12/06 09:28:48;;;;;;;0.70;0.70;;;;;;;;;;1826295;77;26293;-40
2022/12/06 09:31:14;;;;;;;0.70;0.70;;;;;;;;;;1826172;77;26247;-38
2022/12/06 09:33:42;;;;;;;0.82;0.70;;;;;;;;;;1827783;77;26272;-37
2022/12/06 09:36:10;;;;;;;0.62;0.62;;;;;;;;;;1824316;77;26732;-39
2022/12/06 09:38:38;;;;;;;0.70;0.70;;;;;;;;;;1826446;77;26706;-38
2022/12/06 09:41:20;;;;;;;0.70;0.70;;;;;;;;;;1824825;77;26289;-42
2022/12/06 09:43:52;;;;;;;0.82;0.82;;;;;;;;;;1827653;77;26223;-40
2022/12/06 09:46:21;;;;;;;1.15;0.80;;;;;;;;;;1831382;77;26276;-41
2022/12/06 09:48:58;;;;;;;0.62;0.62;;;;;;;;;;1825512;77;26352;-45
2022/12/06 09:51:33;;;;;;;0.50;0.50;;;;;;;;;;1828313;77;26289;-40
2022/12/06 09:54:07;;;;;;;0.60;0.60;;;;;;;;;;1825254;77;26288;-40
2022/12/06 09:56:39;;;;;;;0.70;0.70;;;;;;;;;;1828815;77;26228;-42
2022/12/06 09:59:20;;;;;;;0.62;0.62;;;;;;;;;;1828936;77;26269;-41
2022/12/06 10:01:54;;;;;;;0.68;0.68;;;;;;;;;;1828741;77;26340;-40
2022/12/06 10:04:23;;;;;;;0.82;0.70;;;;;;;;;;1826722;77;26331;-43
2022/12/06 10:06:55;;;;;;;2.42;0.80;;;;;;;;;;1822387;77;26898;-45
2022/12/06 10:09:26;;;;;;;1.32;0.85;;;;;;;;;;1830589;76;26673;-39
2022/12/06 10:12:07;;;;;;;0.90;0.70;;;;;;;;;;1827544;78;26278;-48
2022/12/06 10:14:36;;;;;;;0.93;0.90;;;;;;;;;;1830358;77;26700;-51
2022/12/06 10:17:10;;;;;;;0.70;0.70;;;;;;;;;;1828191;77;26331;-42
2022/12/06 10:19:51;;;;;;;1.00;0.90;;;;;;;;;;1833143;76;27102;-40
2022/12/06 10:22:29;;;;;;;1.05;0.78;;;;;;;;;;1829290;76;26317;-41
2022/12/06 10:25:13;;;;;;;1.92;0.75;;;;;;;;;;1830074;77;26338;-42
2022/12/06 10:27:42;;;;;;;0.60;0.60;;;;;;;;;;1831215;77;26310;-45
2022/12/06 10:30:10;;;;;;;0.60;0.60;;;;;;;;;;1830116;76;26298;-40
2022/12/06 10:32:39;;;;;;;1.27;0.70;;;;;;;;;;1828571;77;26438;-44
2022/12/06 10:35:17;;;;;;;0.60;0.60;;;;;;;;;;1828095;77;26356;-44
2022/12/06 10:37:49;;;;;;;1.25;0.68;;;;;;;;;;1831871;76;26223;-46
2022/12/06 10:40:17;;;;;;;0.70;0.70;;;;;;;;;;1831006;77;26223;-45
2022/12/06 10:42:46;;;;;;;0.68;0.68;;;;;;;;;;1828820;76;26334;-44
2022/12/06 10:48:02;;;;;;;0.78;0.72;;;;;;;;;;1830108;77;26271;-44
2022/12/06 10:50:33;;;;;;;0.55;0.55;;;;;;;;;;1830623;77;26578;-41
2022/12/06 10:53:02;;;;;;;0.62;0.62;;;;;;;;;;1829224;77;27204;-40
2022/12/06 10:55:31;;;;;;;0.60;0.60;;;;;;;;;;1831492;78;26693;-41
2022/12/06 10:58:03;;;;;;;0.55;0.55;;;;;;;;;;1827318;76;26725;-45
2022/12/06 11:00:40;;;;;;;1.07;0.60;;;;;;;;;;1828138;76;26176;-43
2022/12/06 11:03:10;;;;;;;0.60;0.60;;;;;;;;;;1802419;78;26260;-41
2022/12/06 11:05:39;;;;;;;0.80;0.80;;;;;;;;;;1793146;79;26217;-42
2022/12/06 11:08:07;;;;;;;0.68;0.68;;;;;;;;;;1829316;76;26317;-47
2022/12/06 11:10:35;;;;;;;0.70;0.70;;;;;;;;;;1837411;76;26731;-44
2022/12/06 11:13:15;;;;;;;0.60;0.60;;;;;;;;;;1834868;76;27186;-50
2022/12/06 11:15:44;;;;;;;0.60;0.60;;;;;;;;;;1831659;76;26283;-54
2022/12/06 11:18:13;;;;;;;0.70;0.70;;;;;;;;;;1829291;76;26218;-41
2022/12/06 11:21:00;;;;;;;0.60;0.60;;;;;;;;;;1830947;76;26260;-48
2022/12/06 11:23:47;;;;;;;0.50;0.50;;;;;;;;;;1830768;77;26259;-44
2022/12/06 11:26:33;;;;;;;0.50;0.50;;;;;;;;;;1797232;78;26392;-43
2022/12/06 11:29:05;;;;;;;1.37;0.60;;;;;;;;;;1777514;79;26768;-52
2022/12/06 11:31:50;;;;;;;0.50;0.50;;;;;;;;;;1797340;77;26283;-46
2022/12/06 11:34:18;;;;;;;0.60;0.60;;;;;;;;;;1797796;78;26242;-46
2022/12/06 11:36:47;;;;;;;0.57;0.57;;;;;;;;;;1808493;78;26231;-40
2022/12/06 11:39:15;;;;;;;0.60;0.60;;;;;;;;;;1801119;78;26362;-43
2022/12/06 11:41:43;;;;;;;0.50;0.50;;;;;;;;;;1803421;78;26349;-50
2022/12/06 11:44:19;;;;;;;0.50;0.50;;;;;;;;;;1804599;78;26235;-46
2022/12/06 11:46:47;;;;;;;0.45;0.45;;;;;;;;;;1808213;78;26227;-46
2022/12/06 11:49:19;;;;;;;0.50;0.50;;;;;;;;;;1769286;79;26798;-53
2022/12/06 11:51:46;;;;;;;0.50;0.50;;;;;;;;;;1783984;78;26341;-46
2022/12/06 11:54:21;;;;;;;0.45;0.45;;;;;;;;;;1783000;79;26805;-40
2022/12/06 11:56:48;;;;;;;1.05;0.55;;;;;;;;;;1783434;79;26745;-44
2022/12/06 11:59:27;;;;;;;0.57;0.45;;;;;;;;;;1784315;79;26589;-40
2022/12/06 12:01:56;;;;;;;0.60;0.60;;;;;;;;;;1782739;79;26281;-39
2022/12/06 12:04:28;;;;;;;0.50;0.50;;;;;;;;;;1782787;78;26334;-40
2022/12/06 12:06:59;;;;;;;0.55;0.55;;;;;;;;;;1785771;78;27085;-45
2022/12/06 12:09:28;;;;;;;0.35;0.35;;;;;;;;;;1798568;78;26322;-40
2022/12/06 12:12:03;;;;;;;0.57;0.57;;;;;;;;;;1803215;78;26305;-44
2022/12/06 12:14:32;;;;;;;0.53;0.53;;;;;;;;;;1801634;79;26836;-45
2022/12/06 12:17:01;;;;;;;0.57;0.57;;;;;;;;;;1802530;79;26726;-41
2022/12/06 12:19:30;;;;;;;0.60;0.60;;;;;;;;;;1803063;78;26231;-42
2022/12/06 12:21:59;;;;;;;0.50;0.50;;;;;;;;;;1802191;78;26355;-44
2022/12/06 12:24:44;;;;;;;0.40;0.40;;;;;;;;;;1803309;78;26245;-44
2022/12/06 12:27:22;;;;;;;0.40;0.40;;;;;;;;;;1803997;78;26261;-42
2022/12/06 12:29:51;;;;;;;0.60;0.60;;;;;;;;;;1796424;78;29397;-43
2022/12/06 12:32:18;;;;;;;0.57;0.57;;;;;;;;;;1798552;78;26750;-43
2022/12/06 12:34:45;;;;;;;0.50;0.50;;;;;;;;;;1802403;78;26194;-49
2022/12/06 12:37:14;;;;;;;0.70;0.70;;;;;;;;;;1801344;78;26225;-43
2022/12/06 12:39:46;;;;;;;2.65;0.62;;;;;;;;;;1801722;78;26205;-44
2022/12/06 12:42:26;;;;;;;0.50;0.50;;;;;;;;;;1803502;78;26668;-42
2022/12/06 12:44:55;;;;;;;0.40;0.40;;;;;;;;;;1802775;79;26319;-48
2022/12/06 12:47:23;;;;;;;0.60;0.60;;;;;;;;;;1803261;78;26233;-38
2022/12/06 12:50:00;;;;;;;0.50;0.50;;;;;;;;;;1787723;78;48990;-44
2022/12/06 12:52:32;;;;;;;0.50;0.50;;;;;;;;;;1803816;78;25968;-46
2022/12/06 12:55:03;;;;;;;0.62;0.62;;;;;;;;;;1802473;78;26205;-44
2022/12/06 12:57:31;;;;;;;0.62;0.62;;;;;;;;;;1800274;79;26324;-51
2022/12/06 12:59:58;;;;;;;0.50;0.50;;;;;;;;;;1803084;78;26190;-56
2022/12/06 13:02:29;;;;;;;0.60;0.60;;;;;;;;;;1805034;78;26643;-49
2022/12/06 13:04:58;;;;;;;0.60;0.60;;;;;;;;;;1837061;76;26269;-46
2022/12/06 13:07:27;;;;;;;0.60;0.60;;;;;;;;;;1832020;77;26259;-50
2022/12/06 13:09:56;;;;;;;0.60;0.60;;;;;;;;;;1820960;77;28758;-40
2022/12/06 13:12:25;;;;;;;0.60;0.60;;;;;;;;;;1835601;77;26653;-51
2022/12/06 13:14:53;;;;;;;0.70;0.60;;;;;;;;;;1833765;77;26817;-46
2022/12/06 13:17:22;;;;;;;0.60;0.60;;;;;;;;;;1830966;76;26306;-39
2022/12/06 13:19:51;;;;;;;1.25;0.68;;;;;;;;;;1835041;76;26575;-46
2022/12/06 13:22:21;;;;;;;0.57;0.57;;;;;;;;;;1835478;76;26219;-39
2022/12/06 13:24:50;;;;;;;0.80;0.70;;;;;;;;;;1828924;76;26268;-45
2022/12/06 13:27:18;;;;;;;0.60;0.60;;;;;;;;;;1835110;77;26278;-40
2022/12/06 13:29:47;;;;;;;0.60;0.60;;;;;;;;;;1835180;76;26688;-40
2022/12/06 13:32:18;;;;;;;0.60;0.60;;;;;;;;;;1834587;76;26792;-40
2022/12/06 13:34:50;;;;;;;0.85;0.47;;;;;;;;;;1831719;76;26244;-43
2022/12/06 13:37:31;;;;;;;0.65;0.65;;;;;;;;;;1833002;76;26209;-42
2022/12/06 13:39:58;;;;;;;0.72;0.72;;;;;;;;;;1834830;76;26256;-43
2022/12/06 13:42:36;;;;;;;0.85;0.60;;;;;;;;;;1832823;77;26209;-44
2022/12/06 13:45:05;;;;;;;0.65;0.60;;;;;;;;;;1835358;76;26294;-41
2022/12/06 13:47:34;;;;;;;1.05;0.60;;;;;;;;;;1831562;77;26287;-42
2022/12/06 13:50:03;;;;;;;0.60;0.60;;;;;;;;;;1833733;76;27119;-40
2022/12/06 13:52:44;;;;;;;0.53;0.53;;;;;;;;;;1835630;76;26329;-46
2022/12/06 13:55:27;;;;;;;0.50;0.50;;;;;;;;;;1836919;77;26247;-46
2022/12/06 13:57:56;;;;;;;3.37;0.75;;;;;;;;;;1832360;76;26282;-49
2022/12/06 14:00:32;;;;;;;1.10;0.70;;;;;;;;;;1836178;76;26561;-40
2022/12/06 14:03:01;;;;;;;0.50;0.50;;;;;;;;;;1830766;76;26705;-50
2022/12/06 14:05:47;;;;;;;0.60;0.60;;;;;;;;;;1835280;76;26716;-51
2022/12/06 14:08:14;;;;;;;0.72;0.72;;;;;;;;;;1836185;76;26262;-39
2022/12/06 14:10:41;;;;;;;0.60;0.60;;;;;;;;;;1817166;77;26756;-40
2022/12/06 14:13:10;;;;;;;1.17;0.60;;;;;;;;;;1813996;77;26317;-39
2022/12/06 14:15:39;;;;;;;0.57;0.57;;;;;;;;;;1812610;77;26226;-44
2022/12/06 14:18:08;;;;;;;1.57;0.60;;;;;;;;;;1811932;77;26275;-42
2022/12/06 14:20:35;;;;;;;4.47;0.65;;;;;;;;;;1812846;77;26289;-41
2022/12/06 14:23:02;;;;;;;0.60;0.60;;;;;;;;;;1814268;77;26581;-41
2022/12/06 14:25:30;;;;;;;0.57;0.57;;;;;;;;;;1791737;79;26239;-40
2022/12/06 14:28:01;;;;;;;1.30;0.60;;;;;;;;;;1800472;78;26736;-42
2022/12/06 14:30:29;;;;;;;0.60;0.60;;;;;;;;;;1763609;80;26268;-41
2022/12/06 14:32:57;;;;;;;0.75;0.50;;;;;;;;;;1807257;78;26226;-47
2022/12/06 14:35:26;;;;;;;2.65;0.60;;;;;;;;;;1762154;80;26779;-42
2022/12/06 14:37:54;;;;;;;0.62;0.62;;;;;;;;;;1815707;77;26285;-46
2022/12/06 14:40:23;;;;;;;0.55;0.55;;;;;;;;;;1815387;77;26243;-46
2022/12/06 14:43:00;;;;;;;0.50;0.50;;;;;;;;;;1814999;77;26270;-41
2022/12/06 14:45:29;;;;;;;0.75;0.68;;;;;;;;;;1813065;77;26633;-44
2022/12/06 14:47:57;;;;;;;0.53;0.53;;;;;;;;;;1817777;77;26345;-39
2022/12/06 14:50:27;;;;;;;0.50;0.50;;;;;;;;;;1812984;77;26270;-39
2022/12/06 14:52:58;;;;;;;1.35;0.60;;;;;;;;;;1815322;77;26749;-44
2022/12/06 14:55:26;;;;;;;0.50;0.50;;;;;;;;;;1817912;77;27488;-47
2022/12/06 14:57:55;;;;;;;0.47;0.47;;;;;;;;;;1811601;77;26278;-42
2022/12/06 15:00:25;;;;;;;0.70;0.70;;;;;;;;;;1811544;77;26223;-47
2022/12/06 15:03:11;;;;;;;0.70;0.53;;;;;;;;;;1809867;77;26284;-43
2022/12/06 15:05:40;;;;;;;1.45;0.72;;;;;;;;;;1816535;77;26355;-48
2022/12/06 15:08:17;;;;;;;0.65;0.53;;;;;;;;;;1812549;77;26325;-42
2022/12/06 15:11:04;;;;;;;0.60;0.60;;;;;;;;;;1828467;76;26291;-45
2022/12/06 15:13:32;;;;;;;0.50;0.50;;;;;;;;;;1832377;77;26295;-49
2022/12/06 15:16:01;;;;;;;0.65;0.65;;;;;;;;;;1828433;77;26220;-41
2022/12/06 15:18:29;;;;;;;0.47;0.47;;;;;;;;;;1832213;76;26287;-44
2022/12/06 15:20:56;;;;;;;0.82;0.50;;;;;;;;;;1829240;76;26213;-47